Time;durP1;ratioP1;P1;durP2;ratioP2;P2;SDS_P1;SDS_P2;PMS_P1;PMS_P2;Temp;Humidity;BMP_temperature;BMP_pressure;BME280_temperature;BME280_humidity;BME280_pressure;Samples;Min_cycle;Max_cycle;Signal;HPM_P1;HPM_P2
2024/01/05 00:01:04;;;;;;;6.05;3.53;;;;;;;24.47;34.72;98265.16;4979979;28;20023;-43
2024/01/05 00:03:29;;;;;;;5.82;3.47;;;;;;;24.43;34.81;98273.72;4985546;28;20081;-42
2024/01/05 00:05:54;;;;;;;5.85;3.30;;;;;;;24.42;34.76;98277.00;4984873;28;20032;-41
2024/01/05 00:08:20;;;;;;;6.28;3.42;;;;;;;24.38;34.90;98282.81;4984308;28;20037;-44
2024/01/05 00:10:45;;;;;;;5.97;3.53;;;;;;;24.42;34.72;98265.97;4982626;28;20026;-41
2024/01/05 00:13:11;;;;;;;5.88;3.20;;;;;;;24.39;34.68;98265.75;4983702;28;20033;-42
2024/01/05 00:15:36;;;;;;;6.22;3.45;;;;;;;24.40;34.63;98269.25;4983219;28;20046;-43
2024/01/05 00:18:01;;;;;;;5.85;3.28;;;;;;;24.39;34.76;98268.50;4982189;28;20044;-42
2024/01/05 00:20:27;;;;;;;5.20;3.03;;;;;;;24.42;34.76;98268.72;4979692;28;20085;-41
2024/01/05 00:22:52;;;;;;;5.45;2.97;;;;;;;24.43;34.73;98270.97;4990675;28;20025;-41
2024/01/05 00:25:21;;;;;;;5.40;3.13;;;;;;;24.43;34.82;98270.22;4983296;28;20027;-44
2024/01/05 00:27:47;;;;;;;5.53;2.92;;;;;;;24.43;34.70;98261.94;4983196;28;20026;-43
2024/01/05 00:30:13;;;;;;;5.57;3.10;;;;;;;24.43;34.78;98276.47;4985363;28;20077;-43
2024/01/05 00:32:38;;;;;;;5.40;3.10;;;;;;;24.39;34.64;98265.00;4982722;28;20033;-43
2024/01/05 00:35:04;;;;;;;5.28;2.85;;;;;;;24.41;34.80;98261.72;4984114;28;20018;-43
2024/01/05 00:37:29;;;;;;;5.10;2.85;;;;;;;24.39;34.67;98271.25;4978961;28;20045;-42
2024/01/05 00:39:54;;;;;;;6.30;2.97;;;;;;;24.39;34.80;98282.28;4982973;28;20030;-41
2024/01/05 00:42:20;;;;;;;5.88;2.95;;;;;;;24.39;34.75;98276.03;4978915;28;20088;-43
2024/01/05 00:44:45;;;;;;;5.40;2.90;;;;;;;24.39;34.70;98276.03;4983820;28;20022;-42
2024/01/05 00:47:10;;;;;;;5.53;2.90;;;;;;;24.36;34.85;98269.56;4982168;28;20085;-41
2024/01/05 00:49:37;;;;;;;5.10;2.70;;;;;;;24.38;34.67;98280.78;4983965;28;20030;-42
2024/01/05 00:52:03;;;;;;;5.20;2.80;;;;;;;24.41;34.66;98279.00;4981303;28;20030;-41
2024/01/05 00:54:28;;;;;;;5.40;2.97;;;;;;;24.44;34.60;98271.72;4987400;28;20419;-41
2024/01/05 00:56:53;;;;;;;5.30;3.00;;;;;;;24.38;34.66;98269.75;4980790;28;20027;-43
2024/01/05 00:59:19;;;;;;;4.80;2.65;;;;;;;24.42;34.67;98265.97;4981273;28;20469;-40
2024/01/05 01:01:44;;;;;;;5.28;2.58;;;;;;;24.41;34.64;98265.22;4979046;28;20053;-43
2024/01/05 01:04:10;;;;;;;5.03;2.65;;;;;;;24.42;34.67;98268.72;4982841;28;20096;-43
2024/01/05 01:06:35;;;;;;;4.70;2.30;;;;;;;24.44;34.69;98246.88;4980337;28;20027;-41
2024/01/05 01:09:01;;;;;;;4.63;2.50;;;;;;;24.42;34.69;98250.16;4982017;28;20030;-43
2024/01/05 01:11:27;;;;;;;5.18;2.70;;;;;;;24.39;34.71;98249.19;4981821;28;20551;-43
2024/01/05 01:13:52;;;;;;;5.28;2.55;;;;;;;24.41;34.69;98245.91;4981915;28;20094;-41
2024/01/05 01:16:18;;;;;;;4.57;2.30;;;;;;;24.40;34.76;98241.66;4983056;28;20027;-43
2024/01/05 01:18:43;;;;;;;5.20;2.50;;;;;;;24.42;34.75;98235.63;4981077;28;20030;-45
2024/01/05 01:21:08;;;;;;;5.05;2.47;;;;;;;24.43;34.52;98237.13;4982557;28;20014;-43
2024/01/05 01:23:34;;;;;;;4.60;2.40;;;;;;;24.37;34.66;98237.97;4980775;28;20035;-44
2024/01/05 01:25:59;;;;;;;4.70;2.13;;;;;;;24.35;34.66;98240.50;4980989;28;20036;-45
2024/01/05 01:28:24;;;;;;;4.68;2.40;;;;;;;24.39;34.73;98232.66;4980416;28;20039;-41
2024/01/05 01:30:50;;;;;;;4.55;2.40;;;;;;;24.39;34.55;98237.41;4982740;28;20033;-44
2024/01/05 01:33:15;;;;;;;4.45;2.15;;;;;;;24.37;34.72;98240.72;4982365;28;20366;-43
2024/01/05 01:35:40;;;;;;;4.97;2.50;;;;;;;24.39;34.70;98246.44;4982271;28;20022;-44
2024/01/05 01:38:06;;;;;;;5.03;2.28;;;;;;;24.39;34.72;98238.16;4980817;28;20026;-44
2024/01/05 01:40:31;;;;;;;4.82;2.28;;;;;;;24.38;34.70;98236.69;4981838;28;20607;-42
2024/01/05 01:42:57;;;;;;;4.13;2.00;;;;;;;24.38;34.67;98231.16;4982852;28;20027;-41
2024/01/05 01:45:22;;;;;;;5.35;2.25;;;;;;;24.37;34.58;98229.69;4981859;28;20026;-41
2024/01/05 01:47:47;;;;;;;4.28;2.00;;;;;;;24.38;34.58;98225.66;4981798;28;20037;-43
2024/01/05 01:50:13;;;;;;;4.45;2.00;;;;;;;24.37;34.56;98223.44;4981814;28;20034;-42
2024/01/05 01:52:38;;;;;;;4.07;1.98;;;;;;;24.40;34.65;98233.41;4980572;28;20053;-44
2024/01/05 01:55:04;;;;;;;4.20;2.00;;;;;;;24.38;34.70;98233.91;4994135;28;20023;-44
2024/01/05 01:57:30;;;;;;;4.25;1.90;;;;;;;24.37;34.83;98229.69;4993908;28;20038;-43
2024/01/05 01:59:55;;;;;;;4.68;2.05;;;;;;;24.39;34.66;98238.16;4964069;28;20065;-43
2024/01/05 02:02:21;;;;;;;4.30;2.10;;;;;;;24.38;34.52;98233.91;5014213;28;20030;-42
2024/01/05 02:04:46;;;;;;;4.70;2.28;;;;;;;24.41;34.60;98232.13;5017179;28;20032;-44
2024/01/05 02:07:12;;;;;;;4.28;2.00;;;;;;;24.39;34.64;98224.38;4985105;28;20022;-41
2024/01/05 02:09:39;;;;;;;4.18;1.90;;;;;;;24.38;34.75;98211.09;5018684;28;20052;-41
2024/01/05 02:12:05;;;;;;;4.32;2.00;;;;;;;24.39;34.73;98216.09;4983004;28;20136;-41
2024/01/05 02:14:30;;;;;;;4.07;1.90;;;;;;;24.38;34.68;98220.13;4983724;28;20480;-46
2024/01/05 02:16:56;;;;;;;4.13;1.83;;;;;;;24.38;34.64;98225.66;4984245;28;20086;-42
2024/01/05 02:19:21;;;;;;;4.00;1.70;;;;;;;24.33;34.69;98218.22;4986216;28;20034;-41
2024/01/05 02:21:49;;;;;;;3.85;1.70;;;;;;;24.38;34.65;98214.63;4983763;28;20053;-41
2024/01/05 02:24:14;;;;;;;3.80;1.63;;;;;;;24.39;34.60;98216.09;5019488;28;20026;-42
2024/01/05 02:26:40;;;;;;;4.18;1.80;;;;;;;24.38;34.52;98214.63;5015457;28;20026;-44
2024/01/05 02:29:05;;;;;;;4.10;1.80;;;;;;;24.37;34.67;98204.88;4986182;28;20018;-41
2024/01/05 02:31:30;;;;;;;4.47;1.90;;;;;;;24.32;34.74;98211.22;4982582;28;20037;-41
2024/01/05 02:33:56;;;;;;;4.22;2.00;;;;;;;24.34;34.75;98208.69;4988327;28;20544;-41
2024/01/05 02:36:21;;;;;;;3.90;1.80;;;;;;;24.34;34.77;98196.91;4983053;28;20038;-41
2024/01/05 02:38:46;;;;;;;3.85;1.70;;;;;;;24.34;34.74;98194.88;4982919;28;20388;-40
2024/01/05 02:41:12;;;;;;;4.40;1.92;;;;;;;24.32;34.67;98202.94;4986885;28;20061;-41
2024/01/05 02:43:37;;;;;;;3.88;1.70;;;;;;;24.34;34.64;98185.88;4986800;28;20034;-41
2024/01/05 02:46:03;;;;;;;3.20;1.52;;;;;;;24.36;34.72;98177.81;4984320;28;20037;-41
2024/01/05 02:48:28;;;;;;;3.90;1.52;;;;;;;24.35;34.68;98177.06;4988577;28;20097;-42
2024/01/05 02:50:53;;;;;;;3.97;1.83;;;;;;;24.33;34.70;98176.84;4987937;28;20405;-43
2024/01/05 02:53:19;;;;;;;3.30;1.50;;;;;;;24.32;34.81;98172.59;4986105;28;20080;-41
2024/01/05 02:55:44;;;;;;;3.90;1.73;;;;;;;24.35;34.86;98163.28;4983381;28;20027;-43
2024/01/05 02:58:09;;;;;;;3.78;1.65;;;;;;;24.32;34.75;98150.53;4983499;28;20613;-43
2024/01/05 03:00:35;;;;;;;3.50;1.65;;;;;;;24.33;34.99;98152.03;4981367;28;20026;-41
2024/01/05 03:03:00;;;;;;;3.88;1.65;;;;;;;24.34;34.87;98161.81;4983440;28;20022;-42
2024/01/05 03:05:26;;;;;;;3.45;1.60;;;;;;;24.34;34.78;98156.28;4983957;28;20048;-42
2024/01/05 03:07:51;;;;;;;3.72;1.60;;;;;;;24.35;34.87;98155.00;4985841;28;20024;-43
2024/01/05 03:10:17;;;;;;;3.28;1.45;;;;;;;24.34;35.11;98150.03;4987586;28;20145;-42
2024/01/05 03:12:42;;;;;;;3.38;1.50;;;;;;;24.33;35.00;98157.56;4984328;28;20039;-42
2024/01/05 03:15:08;;;;;;;4.88;1.58;;;;;;;24.37;34.96;98158.00;4991360;28;20022;-41
2024/01/05 03:17:33;;;;;;;3.80;1.48;;;;;;;24.39;34.79;98160.19;4982584;28;20068;-43
2024/01/05 03:19:58;;;;;;;4.00;1.67;;;;;;;24.39;34.79;98160.94;4986491;28;20026;-41
2024/01/05 03:22:24;;;;;;;3.88;1.40;;;;;;;24.37;34.86;98146.22;4981828;28;20045;-42
2024/01/05 03:24:49;;;;;;;4.95;1.63;;;;;;;24.38;35.00;98147.69;4982701;28;20077;-42
2024/01/05 03:27:14;;;;;;;3.60;1.52;;;;;;;24.36;34.82;98139.97;4982327;28;20023;-47
2024/01/05 03:29:40;;;;;;;3.03;1.30;;;;;;;24.38;34.88;98134.63;4974015;28;20520;-45
2024/01/05 03:32:06;;;;;;;3.05;1.30;;;;;;;24.39;34.91;98143.66;4982679;28;20023;-44
2024/01/05 03:34:32;;;;;;;3.47;1.40;;;;;;;24.37;34.99;98146.22;4981732;28;20076;-40
2024/01/05 03:36:57;;;;;;;3.38;1.50;;;;;;;24.37;34.82;98140.72;4984014;28;20481;-43
2024/01/05 03:39:23;;;;;;;3.28;1.38;;;;;;;24.39;34.94;98146.41;4979347;28;20081;-48
2024/01/05 03:41:48;;;;;;;2.65;1.20;;;;;;;24.35;35.04;98134.97;4982624;28;20046;-43
2024/01/05 03:44:20;;;;;;;2.72;1.30;;;;;;;24.34;35.12;98139.75;4981314;28;20084;-45
2024/01/05 03:46:46;;;;;;;2.53;1.30;;;;;;;24.36;35.17;98133.69;4981126;28;20026;-45
2024/01/05 03:49:12;;;;;;;3.37;1.30;;;;;;;24.36;35.01;98137.19;4978816;28;20018;-43
2024/01/05 03:51:38;;;;;;;2.72;1.30;;;;;;;24.38;34.98;98128.38;4981177;28;20272;-43
2024/01/05 03:54:03;;;;;;;3.90;1.38;;;;;;;24.36;35.05;98123.41;4985092;28;20034;-46
2024/01/05 03:56:36;;;;;;;2.85;1.40;;;;;;;24.39;35.00;98119.59;4981338;28;20042;-42
2024/01/05 03:59:02;;;;;;;3.42;1.20;;;;;;;24.44;34.79;98117.25;5008426;28;20018;-41
2024/01/05 04:01:27;;;;;;;2.92;1.20;;;;;;;24.42;34.64;98114.28;4982981;28;20037;-41
2024/01/05 04:03:52;;;;;;;2.75;1.20;;;;;;;24.39;34.55;98119.59;4984215;28;20061;-45
2024/01/05 04:06:19;;;;;;;2.85;1.20;;;;;;;24.39;34.43;98116.06;4982833;28;20635;-44
2024/01/05 04:08:44;;;;;;;3.40;1.30;;;;;;;24.36;34.20;98117.91;4979460;28;20026;-43
2024/01/05 04:11:17;;;;;;;3.00;1.15;;;;;;;24.34;34.26;98100.38;4982398;28;20037;-43
2024/01/05 04:13:42;;;;;;;3.53;1.30;;;;;;;24.34;34.22;98108.66;4980593;28;20084;-43
2024/01/05 04:16:08;;;;;;;3.58;1.27;;;;;;;24.31;34.24;98106.94;4984065;28;20025;-42
2024/01/05 04:18:33;;;;;;;4.53;1.50;;;;;;;24.32;34.19;98106.44;4984236;28;20045;-43
2024/01/05 04:20:58;;;;;;;2.72;1.20;;;;;;;24.34;34.23;98100.38;4983206;28;20030;-43
2024/01/05 04:23:24;;;;;;;3.50;1.25;;;;;;;24.35;34.10;98102.63;4981391;28;20427;-42
2024/01/05 04:25:49;;;;;;;3.92;1.30;;;;;;;24.34;34.14;98098.38;4982473;28;20037;-41
2024/01/05 04:28:14;;;;;;;3.25;1.30;;;;;;;24.32;34.19;98097.41;4980871;28;20031;-42
2024/01/05 04:30:40;;;;;;;3.60;1.20;;;;;;;24.32;34.22;98103.66;4980639;28;20439;-42
2024/01/05 04:33:05;;;;;;;4.65;1.17;;;;;;;24.33;34.12;98105.16;4982078;28;20026;-41
2024/01/05 04:35:30;;;;;;;4.82;1.23;;;;;;;24.35;34.08;98110.16;4981403;28;20045;-41
2024/01/05 04:37:56;;;;;;;4.50;1.30;;;;;;;24.35;34.08;98108.13;4980222;28;20034;-41
2024/01/05 04:40:21;;;;;;;3.58;1.10;;;;;;;24.34;33.91;98109.41;4982772;28;20471;-45
2024/01/05 04:42:46;;;;;;;2.95;1.20;;;;;;;24.35;34.12;98110.16;4984087;28;20030;-41
2024/01/05 04:45:13;;;;;;;2.95;1.30;;;;;;;24.31;34.20;98104.94;4984809;28;20029;-42
2024/01/05 04:47:39;;;;;;;2.58;1.20;;;;;;;24.35;34.21;98099.88;4980901;28;20098;-42
2024/01/05 04:50:05;;;;;;;3.40;1.48;;;;;;;24.33;34.22;98104.41;4984768;28;20058;-42
2024/01/05 04:52:30;;;;;;;3.10;1.10;;;;;;;24.31;34.38;98109.72;4979226;28;20411;-41
2024/01/05 04:54:56;;;;;;;3.88;1.23;;;;;;;24.30;34.51;98108.22;4983081;28;20470;-41
2024/01/05 04:57:21;;;;;;;5.28;1.42;;;;;;;24.31;34.55;98099.41;4981614;28;20032;-41
2024/01/05 04:59:47;;;;;;;3.13;1.30;;;;;;;24.36;34.43;98106.13;4979769;28;20030;-41
2024/01/05 05:02:13;;;;;;;3.33;1.35;;;;;;;24.43;34.31;98093.72;4981062;28;20045;-41
2024/01/05 05:04:38;;;;;;;6.72;1.48;;;;;;;24.50;34.49;98084.81;4977614;28;20035;-43
2024/01/05 05:07:04;;;;;;;9.18;1.50;;;;;;;24.51;34.66;98080.81;4981525;28;20114;-44
2024/01/05 05:09:29;;;;;;;8.43;1.75;;;;;;;24.60;35.03;98085.91;4983523;28;20045;-46
2024/01/05 05:11:55;;;;;;;4.30;1.40;;;;;;;24.57;35.28;98081.47;4979484;28;20031;-51
2024/01/05 05:14:20;;;;;;;8.20;1.60;;;;;;;24.57;35.14;98086.97;4989688;28;20436;-52
2024/01/05 05:16:45;;;;;;;20.23;2.00;;;;;;;24.61;35.20;98090.13;4980955;28;20035;-48
2024/01/05 05:19:11;;;;;;;6.65;1.80;;;;;;;24.56;35.37;98096.53;4987823;28;20175;-46
2024/01/05 05:21:36;;;;;;;14.82;1.85;;;;;;;24.54;35.41;98083.25;4982380;28;20031;-53
2024/01/05 05:24:01;;;;;;;7.60;1.70;;;;;;;24.60;35.35;98086.63;5010967;28;20474;-58
2024/01/05 05:26:27;;;;;;;8.32;2.00;;;;;;;24.61;35.46;98088.13;4981541;28;20150;-56
2024/01/05 05:28:52;;;;;;;6.55;1.50;;;;;;;24.60;35.36;98089.41;4984481;28;20030;-52
2024/01/05 05:31:17;;;;;;;3.97;1.40;;;;;;;24.64;35.34;98094.59;4984634;28;20482;-48
2024/01/05 05:33:43;;;;;;;4.97;1.60;;;;;;;24.65;35.62;98101.63;4991536;28;20117;-50
2024/01/05 05:36:08;;;;;;;5.10;1.70;;;;;;;24.67;35.45;98101.84;4990247;28;20022;-49
2024/01/05 05:38:34;;;;;;;4.63;1.40;;;;;;;24.68;35.39;98101.31;4986993;28;20042;-51
2024/01/05 05:40:59;;;;;;;3.40;1.40;;;;;;;24.70;35.53;98100.78;4988577;28;20524;-57
2024/01/05 05:43:24;;;;;;;4.90;1.48;;;;;;;24.71;35.50;98099.50;4987664;28;20030;-58
2024/01/05 05:45:50;;;;;;;4.18;1.45;;;;;;;24.76;35.58;98103.44;4986059;28;20030;-52
2024/01/05 05:48:15;;;;;;;4.00;1.38;;;;;;;24.78;35.47;98093.34;4989090;28;20033;-49
2024/01/05 05:50:40;;;;;;;3.92;1.40;;;;;;;24.79;35.65;98092.06;4992748;28;20057;-48
2024/01/05 05:53:06;;;;;;;4.03;1.40;;;;;;;24.84;35.69;98096.75;4985291;28;20037;-47
2024/01/05 05:55:32;;;;;;;4.32;1.38;;;;;;;24.85;35.47;98109.28;4986514;28;20031;-46
2024/01/05 05:57:57;;;;;;;3.33;1.40;;;;;;;24.89;35.73;98111.72;4983255;28;20705;-46
2024/01/05 06:00:24;;;;;;;3.22;1.25;;;;;;;24.93;35.66;98104.63;4987171;28;20026;-45
2024/01/05 06:02:49;;;;;;;4.00;1.23;;;;;;;24.89;35.62;98104.19;4982792;28;20033;-45
2024/01/05 06:05:14;;;;;;;3.25;1.30;;;;;;;24.86;35.80;98096.97;4987470;28;20461;-54
2024/01/05 06:07:40;;;;;;;3.90;1.20;;;;;;;24.85;35.66;98081.69;4982750;28;20034;-49
2024/01/05 06:10:06;;;;;;;5.10;1.40;;;;;;;24.83;35.49;98078.72;4982449;28;20019;-46
2024/01/05 06:12:31;;;;;;;3.10;1.40;;;;;;;24.84;35.63;98087.72;4982191;28;20046;-50
2024/01/05 06:14:56;;;;;;;3.10;1.20;;;;;;;24.83;35.62;98100.78;4988932;28;20447;-47
2024/01/05 06:17:22;;;;;;;4.22;1.27;;;;;;;24.84;35.40;98099.50;4984701;28;20042;-49
2024/01/05 06:19:47;;;;;;;3.05;1.38;;;;;;;24.88;35.37;98113.00;4985817;28;20444;-58
2024/01/05 06:22:13;;;;;;;3.45;1.10;;;;;;;25.00;35.51;98106.78;4981201;28;20026;-50
2024/01/05 06:24:38;;;;;;;4.45;1.30;;;;;;;25.04;35.32;98112.72;4986671;28;20069;-53
2024/01/05 06:27:03;;;;;;;8.98;1.48;;;;;;;24.96;35.30;98114.66;4986726;28;20478;-48
2024/01/05 06:29:29;;;;;;;3.45;1.30;;;;;;;24.99;35.28;98110.06;4982285;28;20034;-54
2024/01/05 06:31:54;;;;;;;3.33;1.20;;;;;;;24.98;35.26;98114.84;4985281;28;20023;-50
2024/01/05 06:34:20;;;;;;;7.05;1.40;;;;;;;24.97;35.22;98124.41;4980922;28;20027;-52
2024/01/05 06:36:45;;;;;;;3.55;1.25;;;;;;;24.95;34.94;98115.91;4985820;28;20390;-52
2024/01/05 06:39:11;;;;;;;3.25;1.33;;;;;;;24.99;34.83;98116.31;4982732;28;20087;-50
2024/01/05 06:41:36;;;;;;;4.00;1.50;;;;;;;25.04;34.76;98123.03;4984753;28;20038;-51
2024/01/05 06:44:02;;;;;;;2.42;1.13;;;;;;;25.09;34.67;98116.66;4982164;28;20680;-53
2024/01/05 06:46:27;;;;;;;5.13;1.50;;;;;;;25.18;34.34;98113.47;4988559;28;20057;-47
2024/01/05 06:48:53;;;;;;;3.50;1.40;;;;;;;25.14;34.50;98115.81;4982099;28;20035;-51
2024/01/05 06:51:18;;;;;;;4.18;1.50;;;;;;;25.16;34.34;98118.78;4983210;28;20026;-51
2024/01/05 06:53:44;;;;;;;5.85;1.40;;;;;;;25.23;34.55;98115.38;4985587;28;20061;-53
2024/01/05 06:56:10;;;;;;;5.07;1.45;;;;;;;25.15;34.26;98125.59;4982588;28;20133;-53
2024/01/05 06:58:36;;;;;;;5.25;1.42;;;;;;;25.18;34.46;98129.31;4987190;28;20046;-60
2024/01/05 07:01:01;;;;;;;5.93;1.40;;;;;;;25.17;34.25;98128.56;4987884;28;20038;-57
2024/01/05 07:03:27;;;;;;;4.85;1.40;;;;;;;25.11;34.50;98138.97;4984546;28;20027;-56
2024/01/05 07:05:52;;;;;;;3.22;1.17;;;;;;;25.02;34.34;98142.13;4982462;28;20381;-44
2024/01/05 07:08:17;;;;;;;5.00;1.50;;;;;;;25.02;34.35;98148.38;4983032;28;20068;-44
2024/01/05 07:10:43;;;;;;;3.58;1.40;;;;;;;25.03;34.31;98157.41;4981068;28;20029;-44
2024/01/05 07:13:08;;;;;;;3.03;1.27;;;;;;;24.97;34.28;98152.00;4983498;28;20039;-44
2024/01/05 07:15:33;;;;;;;3.13;1.20;;;;;;;24.97;34.13;98151.28;4980773;28;20390;-45
2024/01/05 07:17:59;;;;;;;3.53;1.27;;;;;;;24.95;34.05;98157.31;4981668;28;20047;-47
2024/01/05 07:20:24;;;;;;;3.88;1.38;;;;;;;24.96;33.90;98153.28;4982758;28;20488;-46
2024/01/05 07:22:50;;;;;;;3.55;1.50;;;;;;;24.94;33.94;98152.28;4983069;28;20027;-47
2024/01/05 07:25:15;;;;;;;3.40;1.40;;;;;;;24.93;33.80;98145.28;4984524;28;20045;-46
2024/01/05 07:27:40;;;;;;;3.45;1.27;;;;;;;25.00;34.18;98133.63;4985100;28;20022;-52
2024/01/05 07:30:06;;;;;;;3.53;1.30;;;;;;;24.98;33.88;98128.63;4982765;28;20029;-51
2024/01/05 07:32:32;;;;;;;6.10;1.50;;;;;;;24.97;34.65;98129.19;4982883;28;20047;-55
2024/01/05 07:34:57;;;;;;;6.07;1.67;;;;;;;24.97;34.23;98135.47;4979769;28;20479;-57
2024/01/05 07:37:22;;;;;;;3.35;1.30;;;;;;;24.93;34.10;98135.00;4979139;28;20030;-56
2024/01/05 07:39:48;;;;;;;4.10;1.40;;;;;;;24.95;34.32;98131.72;4986572;28;20026;-51
2024/01/05 07:42:13;;;;;;;4.05;1.58;;;;;;;24.96;34.16;98125.69;4987904;28;20117;-54
2024/01/05 07:44:39;;;;;;;4.18;1.70;;;;;;;24.94;34.06;98131.00;4991437;28;20407;-50
2024/01/05 07:47:04;;;;;;;3.53;1.27;;;;;;;24.95;34.12;98126.97;4988941;28;20030;-50
2024/01/05 07:49:30;;;;;;;4.18;1.40;;;;;;;24.94;34.28;98136.50;4989637;28;20730;-50
2024/01/05 07:51:55;;;;;;;3.40;1.35;;;;;;;24.89;34.26;98140.06;4992371;28;20018;-51
2024/01/05 07:54:20;;;;;;;6.57;1.52;;;;;;;24.87;34.35;98142.63;4992338;28;20049;-50
2024/01/05 07:56:46;;;;;;;4.55;1.95;;;;;;;24.87;34.35;98128.06;4989731;28;20030;-51
2024/01/05 07:59:11;;;;;;;3.97;1.38;;;;;;;24.84;34.32;98132.63;4985633;28;20035;-50
2024/01/05 08:01:36;;;;;;;5.00;1.60;;;;;;;24.82;34.35;98135.19;4989910;28;20025;-50
2024/01/05 08:04:02;;;;;;;4.75;1.40;;;;;;;24.83;34.29;98136.66;4988592;28;20397;-54
2024/01/05 08:06:27;;;;;;;3.60;1.45;;;;;;;24.82;34.30;98129.66;4993220;28;20028;-51
2024/01/05 08:08:52;;;;;;;4.78;1.58;;;;;;;24.81;34.25;98133.69;4984596;28;20041;-52
2024/01/05 08:11:18;;;;;;;5.20;1.83;;;;;;;24.77;34.19;98143.56;4993640;28;20623;-50
2024/01/05 08:13:46;;;;;;;3.95;1.77;;;;;;;24.75;34.42;98141.34;5010847;28;20026;-50
2024/01/05 08:16:11;;;;;;;3.97;1.50;;;;;;;24.72;34.19;98147.91;4992703;28;20102;-51
2024/01/05 08:18:36;;;;;;;3.95;1.45;;;;;;;24.73;34.35;98150.13;4987860;28;20014;-53
2024/01/05 08:21:02;;;;;;;3.38;1.50;;;;;;;24.71;34.40;98146.41;4986772;28;20030;-50
2024/01/05 08:23:28;;;;;;;3.63;1.50;;;;;;;24.70;34.19;98150.44;4992170;28;20018;-53
2024/01/05 08:25:54;;;;;;;7.13;1.58;;;;;;;24.69;34.19;98144.19;4992428;28;20498;-51
2024/01/05 08:28:19;;;;;;;4.68;1.70;;;;;;;24.70;34.19;98144.94;4984368;28;20030;-54
2024/01/05 08:30:44;;;;;;;3.75;1.60;;;;;;;24.69;34.16;98137.91;4987032;28;20540;-51
2024/01/05 08:33:10;;;;;;;4.35;1.80;;;;;;;24.66;34.17;98130.69;4988742;28;20028;-50
2024/01/05 08:35:35;;;;;;;4.43;1.58;;;;;;;24.65;34.25;98143.75;4994254;28;20018;-53
2024/01/05 08:38:02;;;;;;;4.10;1.80;;;;;;;24.63;34.15;98134.50;4990564;28;20032;-51
2024/01/05 08:40:28;;;;;;;3.65;1.60;;;;;;;24.63;34.19;98140.00;4990397;28;20022;-52
2024/01/05 08:42:54;;;;;;;5.25;2.00;;;;;;;24.61;33.79;98131.53;4988342;28;20066;-53
2024/01/05 08:45:19;;;;;;;7.03;2.65;;;;;;;24.51;33.45;98130.44;4985731;28;20031;-51
2024/01/05 08:47:45;;;;;;;8.90;2.70;;;;;;;24.51;33.29;98125.69;4990537;28;20045;-50
2024/01/05 08:50:10;;;;;;;9.80;2.90;;;;;;;24.52;33.22;98116.13;4985739;28;20056;-53
2024/01/05 08:52:36;;;;;;;7.13;2.55;;;;;;;24.51;33.32;98111.88;4984609;28;20126;-50
2024/01/05 08:55:01;;;;;;;6.00;2.30;;;;;;;24.51;33.42;98111.13;4987692;28;20022;-51
2024/01/05 08:57:26;;;;;;;6.50;2.20;;;;;;;24.52;33.57;98118.16;4988204;28;20076;-51
2024/01/05 08:59:52;;;;;;;5.70;2.30;;;;;;;24.51;33.48;98127.69;4984140;28;20022;-52
2024/01/05 09:02:17;;;;;;;6.63;2.20;;;;;;;24.55;33.77;98122.63;4986091;28;20037;-51
2024/01/05 09:04:43;;;;;;;6.40;2.55;;;;;;;24.55;33.78;98128.88;4985608;28;20033;-52
2024/01/05 09:07:08;;;;;;;6.50;2.30;;;;;;;24.50;33.71;98137.22;4986237;28;20022;-49
2024/01/05 09:09:33;;;;;;;4.60;2.17;;;;;;;24.52;33.95;98140.97;4979618;28;20046;-50
2024/01/05 09:12:01;;;;;;;5.10;2.55;;;;;;;24.49;33.68;98144.03;4994858;28;20075;-49
2024/01/05 09:14:26;;;;;;;7.13;2.20;;;;;;;24.50;33.85;98153.78;4990594;28;20019;-51
2024/01/05 09:16:51;;;;;;;7.20;2.50;;;;;;;24.47;33.80;98154.81;4992298;28;20497;-51
2024/01/05 09:19:17;;;;;;;7.05;3.03;;;;;;;24.46;33.66;98158.84;4989292;28;20027;-49
2024/01/05 09:21:42;;;;;;;6.43;2.65;;;;;;;24.42;33.71;98159.16;4990375;28;20026;-51
2024/01/05 09:24:09;;;;;;;7.35;2.65;;;;;;;24.41;33.74;98156.91;5018079;28;20146;-49
2024/01/05 09:26:34;;;;;;;5.38;2.63;;;;;;;24.39;33.59;98160.94;4988520;28;20121;-50
2024/01/05 09:29:00;;;;;;;6.68;2.60;;;;;;;24.40;33.62;98172.72;4988032;28;20023;-49
2024/01/05 09:31:25;;;;;;;5.50;2.78;;;;;;;24.41;33.59;98184.50;4987074;28;20060;-49
2024/01/05 09:33:51;;;;;;;6.38;2.60;;;;;;;24.39;33.58;98188.53;4983400;28;20032;-52
2024/01/05 09:36:16;;;;;;;6.28;2.63;;;;;;;24.42;33.62;98188.75;4988558;28;20034;-50
2024/01/05 09:38:42;;;;;;;7.32;2.80;;;;;;;24.41;33.74;98195.53;4991052;28;20018;-49
2024/01/05 09:41:13;;;;;;;5.72;2.75;;;;;;;24.37;33.85;98202.13;4987193;28;20026;-50
2024/01/05 09:43:40;;;;;;;6.05;2.60;;;;;;;24.33;34.12;98212.69;4994866;28;20049;-50
2024/01/05 09:46:07;;;;;;;7.07;2.80;;;;;;;24.32;34.25;98216.72;4995424;28;20106;-49
2024/01/05 09:48:32;;;;;;;6.87;3.00;;;;;;;24.35;34.18;98226.72;4993894;28;20027;-49
2024/01/05 09:50:58;;;;;;;5.55;2.90;;;;;;;24.35;34.10;98231.47;4991725;28;20887;-53
2024/01/05 09:53:23;;;;;;;6.28;2.58;;;;;;;24.32;34.16;98232.53;4990409;28;20080;-49
2024/01/05 09:55:49;;;;;;;5.53;2.53;;;;;;;24.30;33.98;98232.28;4990840;28;20035;-49
2024/01/05 09:58:15;;;;;;;6.22;2.60;;;;;;;24.22;33.59;98226.59;4991934;28;20040;-50
2024/01/05 10:00:45;;;;;;;6.57;2.60;;;;;;;24.14;33.93;98222.22;4987929;28;20113;-50
2024/01/05 10:03:12;;;;;;;5.68;2.60;;;;;;;24.20;33.79;98220.84;4982845;28;20058;-50
2024/01/05 10:05:37;;;;;;;5.18;2.40;;;;;;;24.21;33.98;98216.09;5005032;28;20027;-49
2024/01/05 10:08:04;;;;;;;6.35;2.80;;;;;;;24.18;33.92;98220.63;4982999;28;20072;-53
2024/01/05 10:11:01;;;;;;;5.77;2.43;;;;;;;24.19;33.79;98224.88;4997461;28;20037;-49
2024/01/05 10:13:27;;;;;;;10.05;2.70;;;;;;;24.20;34.37;98220.84;4989120;28;20033;-51
2024/01/05 10:16:02;;;;;;;7.60;2.80;;;;;;;24.26;34.75;98209.78;4985856;28;20042;-49
2024/01/05 10:18:29;;;;;;;6.53;2.63;;;;;;;24.30;34.93;98208.22;4981672;28;20390;-50
2024/01/05 10:20:55;;;;;;;6.75;2.78;;;;;;;24.36;34.78;98200.63;4983940;28;20034;-48
2024/01/05 10:23:20;;;;;;;5.30;2.53;;;;;;;24.39;34.73;98191.28;4985530;28;20041;-51
2024/01/05 10:25:47;;;;;;;5.65;2.60;;;;;;;24.42;34.45;98195.00;4984428;28;20117;-47
2024/01/05 10:28:38;;;;;;;5.53;2.70;;;;;;;24.48;34.44;98178.38;4978759;28;20025;-53
2024/01/05 10:31:14;;;;;;;6.45;2.92;;;;;;;24.49;34.37;98174.34;4986590;28;20038;-48
2024/01/05 10:33:52;;;;;;;5.85;2.53;;;;;;;24.53;34.24;98172.78;4993560;28;20022;-52
2024/01/05 10:36:21;;;;;;;5.55;2.67;;;;;;;24.55;34.16;98172.25;4989145;28;20023;-45
2024/01/05 10:38:47;;;;;;;6.70;2.75;;;;;;;24.57;34.19;98184.28;4977805;28;20760;-52
2024/01/05 10:41:13;;;;;;;7.50;2.50;;;;;;;24.60;33.89;98185.22;4985179;28;20038;-47
2024/01/05 10:43:40;;;;;;;5.35;2.67;;;;;;;24.62;33.98;98180.66;4986406;28;20024;-47
2024/01/05 10:46:06;;;;;;;5.22;2.47;;;;;;;24.71;33.92;98177.50;4983498;28;20470;-54
2024/01/05 10:48:33;;;;;;;6.68;2.58;;;;;;;24.73;33.90;98177.00;4994584;28;20053;-48
2024/01/05 10:50:58;;;;;;;6.20;2.50;;;;;;;24.76;33.87;98181.44;5013191;28;20022;-49
2024/01/05 10:53:23;;;;;;;6.47;2.53;;;;;;;24.75;33.75;98181.97;4982202;28;20036;-54
2024/01/05 10:55:49;;;;;;;7.50;3.08;;;;;;;24.73;33.68;98177.00;4986485;28;20034;-47
2024/01/05 10:58:14;;;;;;;7.07;2.58;;;;;;;24.75;33.60;98177.22;4984116;28;20045;-48
2024/01/05 11:00:40;;;;;;;5.50;2.70;;;;;;;24.77;33.55;98165.66;4986808;28;20036;-47
2024/01/05 11:03:14;;;;;;;6.47;2.63;;;;;;;24.73;33.67;98166.69;4986709;28;20022;-47
2024/01/05 11:05:41;;;;;;;6.07;2.55;;;;;;;24.71;33.51;98163.72;4981154;28;20018;-48
2024/01/05 11:08:11;;;;;;;5.60;2.30;;;;;;;24.73;33.61;98158.41;4986219;28;20030;-48
2024/01/05 11:10:53;;;;;;;5.28;2.33;;;;;;;24.73;33.51;98154.91;4985055;28;20076;-47
2024/01/05 11:13:30;;;;;;;6.22;2.50;;;;;;;24.69;33.53;98152.47;4989259;28;20026;-47
2024/01/05 11:16:24;;;;;;;6.10;2.70;;;;;;;24.70;33.34;98150.44;4848416;28;10000853;-52
2024/01/05 11:19:21;;;;;;;5.68;2.25;;;;;;;24.72;33.46;98153.41;4662894;28;10001543;-47
2024/01/05 11:21:54;;;;;;;5.80;2.65;;;;;;;24.68;33.48;98147.47;4984415;28;20075;-46
2024/01/05 11:24:19;;;;;;;8.15;4.20;;;;;;;24.66;33.79;98150.00;4978079;28;20030;-46
2024/01/05 11:26:45;;;;;;;25.20;21.88;;;;;;;24.62;33.76;98147.56;4986104;28;21349;-46
2024/01/05 11:29:15;;;;;;;30.98;25.80;;;;;;;24.63;33.71;98151.06;4980570;28;20020;-48